Time;durP1;ratioP1;P1;durP2;ratioP2;P2;SDS_P1;SDS_P2;PMS_P1;PMS_P2;Temp;Humidity;BMP_temperature;BMP_pressure;BME280_temperature;BME280_humidity;BME280_pressure;Samples;Min_cycle;Max_cycle;Signal;HPM_P1;HPM_P2
2024/03/18 00:01:26;;;;;;;14.88;8.38;;;;;;;15.08;63.69;101586.63;4933034;28;96890;-83
2024/03/18 00:03:52;;;;;;;13.60;8.73;;;;;;;15.09;63.78;101587.50;4948716;28;100538;-83
2024/03/18 00:06:17;;;;;;;16.42;8.10;;;;;;;15.09;64.02;101582.25;4946503;28;97663;-83
2024/03/18 00:08:45;;;;;;;14.45;8.80;;;;;;;15.09;63.99;101585.72;4935657;28;96981;-83
2024/03/18 00:11:11;;;;;;;15.95;7.85;;;;;;;15.10;63.70;101582.25;4928994;28;97302;-83
2024/03/18 00:13:37;;;;;;;14.18;8.93;;;;;;;15.11;63.86;101585.75;4947870;28;101020;-83
2024/03/18 00:16:03;;;;;;;16.45;8.45;;;;;;;15.13;64.01;101578.75;4943681;28;100395;-83
2024/03/18 00:18:29;;;;;;;15.50;9.07;;;;;;;15.15;63.91;101584.88;4953393;28;96958;-84
2024/03/18 00:20:54;;;;;;;16.70;9.80;;;;;;;15.14;63.75;101575.25;4939430;28;97057;-83
2024/03/18 00:23:20;;;;;;;16.20;9.13;;;;;;;15.13;63.74;101577.00;4953719;28;100023;-83
2024/03/18 00:25:45;;;;;;;14.90;9.15;;;;;;;15.12;63.70;101577.88;4938346;28;100343;-83
2024/03/18 00:28:12;;;;;;;19.95;11.10;;;;;;;15.12;63.94;101577.88;4942544;28;96939;-83
2024/03/18 00:30:39;;;;;;;16.63;10.45;;;;;;;15.11;63.93;101575.22;4943480;28;96967;-84
2024/03/18 00:33:04;;;;;;;16.48;10.73;;;;;;;15.11;64.05;101572.59;4954000;28;97956;-84
2024/03/18 00:35:30;;;;;;;19.25;10.70;;;;;;;15.12;63.91;101577.88;4945705;28;100277;-84
2024/03/18 00:37:55;;;;;;;17.77;9.90;;;;;;;15.12;63.91;101574.38;4938908;28;96962;-84
2024/03/18 00:40:21;;;;;;;18.73;10.30;;;;;;;15.11;63.78;101575.22;4943276;28;96903;-83
2024/03/18 00:42:47;;;;;;;18.67;11.25;;;;;;;15.10;63.90;101577.00;4955877;28;99842;-83
2024/03/18 00:45:14;;;;;;;19.75;11.52;;;;;;;15.13;64.24;101576.13;4939213;28;100317;-83
2024/03/18 00:47:40;;;;;;;17.77;10.90;;;;;;;15.13;63.87;101582.25;4950804;28;96900;-84
2024/03/18 00:50:11;;;;;;;19.58;10.98;;;;;;;15.12;63.89;101583.13;4958448;28;96901;-84
2024/03/18 00:52:39;;;;;;;18.25;10.32;;;;;;;15.12;63.82;101579.63;4959007;28;98040;-84
2024/03/18 00:55:05;;;;;;;21.98;11.15;;;;;;;15.13;64.04;101577.00;4951088;28;100442;-84
2024/03/18 00:57:31;;;;;;;22.00;12.40;;;;;;;15.14;64.01;101572.63;4954003;28;96809;-84
2024/03/18 00:59:57;;;;;;;20.98;12.38;;;;;;;15.16;64.07;101578.78;4959168;28;97081;-84
2024/03/18 01:02:22;;;;;;;21.92;12.88;;;;;;;15.14;63.95;101568.25;4962652;28;102843;-84
2024/03/18 01:04:48;;;;;;;25.65;13.68;;;;;;;15.13;63.82;101571.72;4945068;28;100074;-84
2024/03/18 01:07:13;;;;;;;24.02;13.30;;;;;;;15.12;64.35;101562.13;4954191;28;96921;-84
2024/03/18 01:09:41;;;;;;;20.90;12.98;;;;;;;15.13;64.02;101561.22;4952386;28;97001;-84
2024/03/18 01:12:07;;;;;;;26.50;14.00;;;;;;;15.14;63.93;101559.50;4954859;28;101320;-84
2024/03/18 01:14:32;;;;;;;26.10;14.73;;;;;;;15.13;63.72;101555.97;4951409;28;100385;-84
2024/03/18 01:16:58;;;;;;;24.77;14.80;;;;;;;15.12;63.80;101558.63;4951355;28;96949;-86
2024/03/18 01:19:24;;;;;;;23.35;13.13;;;;;;;15.11;63.98;101552.47;4937697;28;96954;-88
2024/03/18 01:21:50;;;;;;;23.38;12.88;;;;;;;15.10;63.74;101547.19;4939002;28;99354;-86
2024/03/18 01:24:15;;;;;;;27.80;14.30;;;;;;;15.09;63.63;101541.06;4941038;28;100303;-85
2024/03/18 01:26:41;;;;;;;24.20;13.63;;;;;;;15.09;63.79;101540.19;4935835;28;96892;-86
2024/03/18 01:29:07;;;;;;;29.60;15.02;;;;;;;15.03;63.74;101539.28;4941273;28;97007;-86
2024/03/18 01:31:32;;;;;;;29.35;14.63;;;;;;;15.01;63.71;101543.66;4950615;28;100734;-86
2024/03/18 01:34:04;;;;;;;29.58;15.20;;;;;;;14.99;63.69;101539.25;4938711;28;100123;-88
2024/03/18 01:36:32;;;;;;;29.42;14.90;;;;;;;14.94;63.71;101544.50;4951952;28;97019;-87
2024/03/18 01:38:58;;;;;;;30.38;15.32;;;;;;;14.92;63.93;101542.72;4952987;28;96985;-86
2024/03/18 01:41:24;;;;;;;26.48;14.48;;;;;;;14.90;63.88;101542.75;4933342;28;100550;-87
2024/03/18 01:43:49;;;;;;;30.20;15.13;;;;;;;14.90;64.07;101547.09;4934108;28;100348;-86
2024/03/18 01:46:16;;;;;;;33.13;15.40;;;;;;;14.91;63.97;101543.59;4955683;28;96883;-86
2024/03/18 01:48:44;;;;;;;28.27;15.13;;;;;;;14.90;64.03;101544.47;4936142;28;97729;-86
2024/03/18 01:51:10;;;;;;;29.35;15.25;;;;;;;14.90;64.21;101534.84;4935039;28;101111;-85
2024/03/18 01:53:36;;;;;;;30.35;16.92;;;;;;;14.91;64.04;101538.34;4944146;28;100827;-85
2024/03/18 01:56:03;;;;;;;29.15;15.23;;;;;;;14.89;64.04;101530.47;4954348;28;96886;-83
2024/03/18 01:58:28;;;;;;;31.88;16.42;;;;;;;14.90;64.03;101532.22;4956862;28;97119;-84
2024/03/18 02:00:54;;;;;;;29.90;15.45;;;;;;;14.89;64.12;101529.59;4958595;28;97593;-83
2024/03/18 02:03:23;;;;;;;38.28;17.55;;;;;;;14.88;64.26;101527.81;4940926;28;99937;-83
2024/03/18 02:05:49;;;;;;;34.10;16.80;;;;;;;14.89;64.25;101534.84;4949044;28;96943;-83
2024/03/18 02:08:14;;;;;;;36.20;17.08;;;;;;;14.89;64.39;101532.22;4951716;28;96990;-86
2024/03/18 02:10:40;;;;;;;33.55;16.75;;;;;;;14.91;64.35;101525.22;4943263;28;100729;-86
2024/03/18 02:13:06;;;;;;;36.00;16.92;;;;;;;14.90;64.35;101532.22;4948839;28;100300;-86
2024/03/18 02:15:32;;;;;;;37.75;17.58;;;;;;;14.89;64.32;101519.94;4952900;28;96904;-86
2024/03/18 02:17:58;;;;;;;36.60;17.73;;;;;;;14.89;64.43;101519.09;4937787;28;96985;-86
2024/03/18 02:20:24;;;;;;;43.72;18.58;;;;;;;14.89;64.39;101519.94;4952433;28;97948;-87
2024/03/18 02:22:51;;;;;;;49.53;19.23;;;;;;;14.90;64.42;101518.19;4949223;28;100766;-86
2024/03/18 02:25:17;;;;;;;36.35;17.13;;;;;;;14.90;64.52;101516.47;4953606;28;97349;-86
2024/03/18 02:27:44;;;;;;;37.22;17.45;;;;;;;14.91;64.39;101514.72;4950673;28;96901;-86
2024/03/18 02:30:10;;;;;;;35.75;17.50;;;;;;;14.92;64.61;101517.34;4953880;28;97804;-86
2024/03/18 02:32:36;;;;;;;39.85;18.08;;;;;;;14.95;64.46;101508.59;4956029;28;100530;-86
2024/03/18 02:35:07;;;;;;;37.83;18.33;;;;;;;14.98;64.41;101506.84;4938441;28;96946;-86
2024/03/18 02:37:32;;;;;;;37.92;17.77;;;;;;;15.02;64.39;101502.50;4941190;28;96857;-86
2024/03/18 02:40:01;;;;;;;39.92;17.58;;;;;;;15.03;64.49;101501.63;4937925;28;99856;-87
2024/03/18 02:42:27;;;;;;;33.88;16.20;;;;;;;15.04;64.38;101501.66;4948952;28;100051;-86
2024/03/18 02:44:52;;;;;;;35.63;17.05;;;;;;;15.02;64.26;101499.88;4950612;28;97026;-86
2024/03/18 02:47:18;;;;;;;43.22;19.63;;;;;;;15.01;64.26;101499.00;4941842;28;97028;-86
2024/03/18 02:49:43;;;;;;;42.22;19.05;;;;;;;14.99;64.24;101503.38;4951962;28;100367;-86
2024/03/18 02:52:08;;;;;;;40.65;18.98;;;;;;;15.00;64.39;101505.13;4949438;28;100274;-87
2024/03/18 02:54:34;;;;;;;41.58;20.48;;;;;;;15.01;64.41;101491.13;4947529;28;96938;-87
2024/03/18 02:56:59;;;;;;;41.10;19.95;;;;;;;15.01;64.39;101501.63;4939789;28;97167;-86
2024/03/18 02:59:25;;;;;;;48.15;20.55;;;;;;;15.04;64.47;101496.41;4937960;28;100241;-86
2024/03/18 03:01:50;;;;;;;51.83;21.70;;;;;;;15.05;64.31;101494.63;4933381;28;99859;-87
2024/03/18 03:04:16;;;;;;;47.50;20.27;;;;;;;15.06;64.25;101487.63;4953079;28;96856;-87
2024/03/18 03:06:41;;;;;;;61.25;21.40;;;;;;;15.03;64.55;101494.63;4949926;28;97088;-86
2024/03/18 03:09:09;;;;;;;49.67;21.85;;;;;;;15.00;63.94;101491.09;4934845;28;99491;-87
2024/03/18 03:11:35;;;;;;;63.72;24.52;;;;;;;14.95;64.35;101491.06;4946841;28;97604;-86
2024/03/18 03:14:00;;;;;;;54.03;21.65;;;;;;;14.93;64.42;101490.19;4950767;28;96904;-86
2024/03/18 03:16:26;;;;;;;52.65;21.85;;;;;;;14.94;64.49;101489.34;4934900;28;96971;-86
2024/03/18 03:18:51;;;;;;;53.00;24.08;;;;;;;14.98;64.67;101483.22;4949816;28;100917;-86
2024/03/18 03:21:18;;;;;;;51.20;21.70;;;;;;;15.02;64.41;101478.84;4930032;28;99762;-86
2024/03/18 03:23:45;;;;;;;52.85;22.67;;;;;;;15.03;64.63;101478.00;4934597;28;96864;-86
2024/03/18 03:26:10;;;;;;;54.45;22.83;;;;;;;15.03;64.46;101481.50;4938747;28;97007;-86
2024/03/18 03:28:37;;;;;;;55.80;22.23;;;;;;;15.03;64.43;101478.00;4932149;28;100501;-86
2024/03/18 03:31:05;;;;;;;51.58;21.55;;;;;;;15.02;64.57;101479.72;4953532;28;100108;-86
2024/03/18 03:33:31;;;;;;;50.90;22.77;;;;;;;15.03;64.50;101481.50;4948745;28;96926;-87
2024/03/18 03:35:56;;;;;;;49.35;21.65;;;;;;;15.04;64.42;101471.84;4938601;28;97098;-87
2024/03/18 03:38:23;;;;;;;53.45;20.67;;;;;;;15.04;64.42;101482.34;4949294;28;100644;-86
2024/03/18 03:40:55;;;;;;;56.53;21.77;;;;;;;15.01;64.53;101479.75;4933910;28;100601;-87
2024/03/18 03:43:21;;;;;;;53.28;21.10;;;;;;;15.00;64.63;101476.22;4935562;28;96937;-87
2024/03/18 03:45:56;;;;;;;53.13;23.17;;;;;;;14.98;64.36;101475.34;4937269;28;97069;-87
2024/03/18 03:48:26;;;;;;;55.97;22.83;;;;;;;15.00;64.51;101480.59;4935095;28;100779;-87
2024/03/18 03:50:53;;;;;;;79.75;25.08;;;;;;;15.00;64.48;101476.22;4935126;28;99850;-86
2024/03/18 03:53:19;;;;;;;54.70;22.83;;;;;;;15.01;64.57;101485.00;4929295;28;96909;-86
2024/03/18 03:55:45;;;;;;;57.97;21.98;;;;;;;15.01;64.72;101491.13;4951480;28;97103;-87
2024/03/18 03:58:11;;;;;;;52.90;21.77;;;;;;;15.03;64.57;101489.38;4935417;28;100358;-86
2024/03/18 04:00:36;;;;;;;56.13;22.30;;;;;;;15.06;64.48;101492.88;4951319;28;97579;-86
2024/03/18 04:03:02;;;;;;;53.55;21.83;;;;;;;15.06;64.54;101490.25;4937831;28;97429;-86
2024/03/18 04:05:27;;;;;;;55.40;23.10;;;;;;;15.05;64.53;101497.25;4935340;28;97061;-86
2024/03/18 04:07:53;;;;;;;59.88;22.73;;;;;;;15.04;64.54;101495.50;4951631;28;100440;-86
2024/03/18 04:10:18;;;;;;;86.15;24.95;;;;;;;15.03;64.51;101493.75;4951601;28;100240;-87
2024/03/18 04:12:44;;;;;;;53.67;21.40;;;;;;;15.03;64.60;101499.00;4943001;28;96899;-87
2024/03/18 04:15:11;;;;;;;56.50;21.02;;;;;;;15.01;64.41;101488.50;4951108;28;96948;-86
2024/03/18 04:17:37;;;;;;;57.47;22.55;;;;;;;15.01;64.59;101495.50;4949361;28;100540;-86
2024/03/18 04:20:18;;;;;;;71.28;25.42;;;;;;;15.02;64.38;101497.25;4934221;28;100520;-86
2024/03/18 04:22:53;;;;;;;57.28;21.05;;;;;;;15.04;64.71;101492.88;4954424;28;97061;-87
2024/03/18 04:25:20;;;;;;;52.47;20.80;;;;;;;15.07;64.64;101502.53;4956570;28;97005;-84
2024/03/18 04:27:47;;;;;;;53.38;20.20;;;;;;;15.07;64.42;101497.28;4949508;28;100364;-84
2024/03/18 04:30:17;;;;;;;49.72;21.00;;;;;;;15.07;64.33;101498.16;4934739;28;100157;-84
2024/03/18 04:32:44;;;;;;;53.85;21.33;;;;;;;15.07;64.60;101489.41;4954589;28;96934;-84
2024/03/18 04:35:10;;;;;;;62.55;21.52;;;;;;;15.08;64.54;101496.38;4938193;28;96940;-84
2024/03/18 04:37:40;;;;;;;50.13;18.42;;;;;;;15.09;64.65;101498.16;4969926;28;100517;-84
2024/03/18 04:40:11;;;;;;;47.38;20.77;;;;;;;15.08;64.32;101501.66;4944376;28;100287;-84
2024/03/18 04:42:37;;;;;;;43.75;17.20;;;;;;;15.07;64.52;101507.78;4937579;28;96874;-84
2024/03/18 04:45:03;;;;;;;47.60;17.50;;;;;;;15.02;64.38;101503.38;4952048;28;96807;-83
2024/03/18 04:47:29;;;;;;;48.83;19.70;;;;;;;15.02;64.44;101510.38;4951884;28;100800;-84
2024/03/18 04:49:54;;;;;;;41.83;18.20;;;;;;;15.02;64.41;101511.25;4955546;28;100509;-83
2024/03/18 04:52:19;;;;;;;45.63;19.85;;;;;;;15.02;64.26;101502.50;4952619;28;96857;-84
2024/03/18 04:54:45;;;;;;;45.45;18.27;;;;;;;15.02;64.67;101511.25;4939188;28;96877;-83
2024/03/18 04:57:11;;;;;;;50.45;21.13;;;;;;;15.02;64.61;101511.25;4956434;28;98077;-84
2024/03/18 04:59:37;;;;;;;48.88;20.42;;;;;;;15.02;64.49;101511.25;4951851;28;100727;-83
2024/03/18 05:02:02;;;;;;;61.35;20.98;;;;;;;15.04;64.47;101509.53;4943399;28;96914;-84
2024/03/18 05:04:27;;;;;;;52.92;20.48;;;;;;;15.06;64.67;101506.88;4935858;28;96995;-84
2024/03/18 05:06:53;;;;;;;49.72;20.58;;;;;;;15.06;64.42;101506.88;4938529;28;100536;-84
2024/03/18 05:09:20;;;;;;;44.60;18.92;;;;;;;15.07;64.25;101507.78;4934582;28;100524;-84
2024/03/18 05:11:45;;;;;;;43.03;18.20;;;;;;;15.05;64.27;101513.03;4944342;28;97130;-84
2024/03/18 05:14:11;;;;;;;42.78;18.40;;;;;;;15.02;64.31;101515.63;4937614;28;96928;-84
2024/03/18 05:16:39;;;;;;;40.25;17.90;;;;;;;14.98;64.11;101508.63;4939431;28;100699;-84
2024/03/18 05:19:05;;;;;;;39.92;16.35;;;;;;;14.96;64.17;101510.38;4949204;28;100360;-84
2024/03/18 05:21:31;;;;;;;35.38;15.50;;;;;;;14.93;64.69;101510.34;4953120;28;96869;-84
2024/03/18 05:23:57;;;;;;;39.22;16.67;;;;;;;14.91;64.29;101514.72;4950290;28;96880;-84
2024/03/18 05:26:22;;;;;;;37.65;17.00;;;;;;;14.89;64.25;101519.09;4950902;28;100386;-84
2024/03/18 05:28:48;;;;;;;36.03;15.32;;;;;;;14.87;64.28;101518.19;4949468;28;100635;-83
2024/03/18 05:31:13;;;;;;;38.67;17.23;;;;;;;14.82;64.04;101519.03;4955013;28;96940;-84
2024/03/18 05:33:39;;;;;;;44.15;16.27;;;;;;;14.80;64.18;101518.16;4952363;28;96953;-83
2024/03/18 05:36:04;;;;;;;39.72;17.00;;;;;;;14.80;64.28;101514.66;4938025;28;100575;-84
2024/03/18 05:38:30;;;;;;;39.13;16.38;;;;;;;14.80;64.16;101514.66;4952819;28;100112;-84
2024/03/18 05:40:55;;;;;;;32.05;15.15;;;;;;;14.78;64.09;101521.66;4953745;28;96993;-84
2024/03/18 05:43:21;;;;;;;37.63;15.82;;;;;;;14.77;64.35;101515.50;4954048;28;96989;-84
2024/03/18 05:45:46;;;;;;;38.40;17.02;;;;;;;14.78;64.36;101521.66;4947677;28;101001;-84
2024/03/18 05:48:12;;;;;;;34.92;16.40;;;;;;;14.76;64.31;101520.72;4954547;28;97829;-84
2024/03/18 05:50:38;;;;;;;38.55;15.65;;;;;;;14.74;64.62;101520.75;4951238;28;96922;-84
2024/03/18 05:53:03;;;;;;;40.03;15.13;;;;;;;14.74;64.30;101514.59;4956766;28;97284;-83
2024/03/18 05:55:29;;;;;;;40.17;16.23;;;;;;;14.74;64.32;101519.84;4939801;28;100372;-84
2024/03/18 05:57:57;;;;;;;36.28;14.88;;;;;;;14.72;64.24;101522.47;4952342;28;100234;-83
2024/03/18 06:00:23;;;;;;;39.13;15.80;;;;;;;14.71;64.05;101520.72;4937077;28;96843;-83
2024/03/18 06:03:08;;;;;;;38.80;15.43;;;;;;;14.67;64.24;101518.97;4934744;28;97011;-84
2024/03/18 06:05:42;;;;;;;35.95;16.85;;;;;;;14.71;64.26;101519.84;4950284;28;100542;-84
2024/03/18 06:08:07;;;;;;;37.92;15.43;;;;;;;14.70;64.29;101518.09;4956461;28;99777;-83
2024/03/18 06:10:33;;;;;;;41.65;17.02;;;;;;;14.69;64.23;101517.22;4950916;28;96964;-84
2024/03/18 06:12:59;;;;;;;37.00;16.45;;;;;;;14.69;64.32;101524.19;4939562;28;97199;-83
2024/03/18 06:15:24;;;;;;;44.92;16.05;;;;;;;14.70;64.30;101525.97;4949143;28;97941;-83
2024/03/18 06:17:49;;;;;;;44.28;18.00;;;;;;;14.70;64.58;101529.47;4933430;28;100442;-83
2024/03/18 06:20:16;;;;;;;40.00;16.40;;;;;;;14.70;64.46;101523.34;4949452;28;96961;-83
2024/03/18 06:22:42;;;;;;;41.88;17.73;;;;;;;14.70;64.13;101528.59;4953045;28;96924;-83
2024/03/18 06:27:53;;;;;;;46.58;18.02;;;;;;;14.70;64.61;101528.59;4965486;28;100228;-83
2024/03/18 06:30:19;;;;;;;40.00;16.48;;;;;;;14.71;64.54;101528.59;4949833;28;96896;-80
2024/03/18 06:32:49;;;;;;;42.17;17.02;;;;;;;14.74;64.40;101532.97;4952591;28;96940;-80
2024/03/18 06:35:14;;;;;;;40.80;17.80;;;;;;;14.74;64.37;101531.25;4951704;28;98152;-83
2024/03/18 06:37:40;;;;;;;45.42;18.05;;;;;;;14.74;64.56;101538.22;4949165;28;97568;-87
2024/03/18 06:40:11;;;;;;;43.42;17.40;;;;;;;14.74;64.54;101535.59;4937545;28;96946;-86
2024/03/18 06:42:37;;;;;;;40.30;17.17;;;;;;;14.76;64.29;101533.88;4950023;28;96910;-88
2024/03/18 06:45:03;;;;;;;41.58;17.38;;;;;;;14.76;64.33;101537.38;4950589;28;97631;-86
2024/03/18 06:47:28;;;;;;;37.35;17.30;;;;;;;14.78;64.39;101532.16;4929757;28;100310;-87
2024/03/18 06:49:53;;;;;;;42.60;17.42;;;;;;;14.79;64.45;101531.25;4948998;28;96919;-87
2024/03/18 06:52:19;;;;;;;39.60;16.15;;;;;;;14.80;64.46;101533.03;4931547;28;96989;-87
2024/03/18 06:54:45;;;;;;;40.90;16.85;;;;;;;14.80;64.35;101535.66;4934651;28;100596;-87
2024/03/18 06:57:10;;;;;;;37.72;14.82;;;;;;;14.81;64.28;101533.06;4935285;28;100665;-86
2024/03/18 06:59:36;;;;;;;38.17;15.52;;;;;;;14.80;64.22;101531.28;4938670;28;96932;-86
2024/03/18 07:02:02;;;;;;;44.40;17.67;;;;;;;14.80;64.41;101531.28;4950936;28;96955;-86
2024/03/18 07:04:28;;;;;;;41.50;17.60;;;;;;;14.82;64.54;101523.41;4951907;28;97776;-89
2024/03/18 07:06:53;;;;;;;51.30;17.35;;;;;;;14.85;64.53;101531.31;4940193;28;100644;-89
2024/03/18 07:09:19;;;;;;;40.67;16.38;;;;;;;14.87;64.65;101534.84;4950002;28;96837;-89
2024/03/18 07:11:45;;;;;;;41.25;16.05;;;;;;;14.90;64.69;101539.22;4951026;28;97061;-88
2024/03/18 07:14:11;;;;;;;40.38;16.02;;;;;;;14.91;64.76;101536.59;4934901;28;100520;-87
2024/03/18 07:16:36;;;;;;;46.70;15.63;;;;;;;14.91;64.44;101539.22;4949451;28;100467;-87
2024/03/18 07:19:02;;;;;;;36.08;14.00;;;;;;;14.91;64.27;101543.59;4941823;28;96888;-88
2024/03/18 07:21:27;;;;;;;34.70;14.73;;;;;;;14.88;64.25;101549.69;4954057;28;97226;-88
2024/03/18 07:23:52;;;;;;;40.95;14.30;;;;;;;14.89;64.43;101547.97;4953362;28;100266;-88
2024/03/18 07:26:18;;;;;;;39.63;16.08;;;;;;;14.88;64.18;101554.09;4930783;28;99953;-87
2024/03/18 07:28:44;;;;;;;39.80;15.23;;;;;;;14.89;64.24;101554.09;4937364;28;97040;-87
2024/03/18 07:31:13;;;;;;;35.70;13.65;;;;;;;14.86;64.42;101551.44;4947597;28;96917;-87
2024/03/18 07:33:40;;;;;;;38.13;16.13;;;;;;;14.86;64.59;101554.06;4940230;28;99074;-87
2024/03/18 07:36:05;;;;;;;38.55;15.00;;;;;;;14.87;64.53;101552.34;4951535;28;100062;-87
2024/03/18 07:38:31;;;;;;;38.67;15.30;;;;;;;14.89;64.38;101554.09;4938031;28;96899;-87
2024/03/18 07:40:57;;;;;;;37.33;16.52;;;;;;;14.89;64.40;101554.09;4941587;28;97152;-87
2024/03/18 07:43:22;;;;;;;42.85;15.52;;;;;;;14.90;64.56;101554.97;4951914;28;100488;-87
2024/03/18 07:45:47;;;;;;;38.67;14.88;;;;;;;14.89;64.28;101561.09;4950068;28;100631;-87
2024/03/18 07:48:13;;;;;;;40.53;15.63;;;;;;;14.87;64.38;101557.59;4951236;28;103500;-86
2024/03/18 07:50:39;;;;;;;38.20;17.20;;;;;;;14.87;64.41;101554.97;4937318;28;96959;-87
2024/03/18 07:53:04;;;;;;;37.17;16.13;;;;;;;14.90;64.47;101570.72;4951836;28;97925;-87
2024/03/18 07:55:31;;;;;;;44.38;18.52;;;;;;;14.93;64.64;101573.38;4953945;28;100711;-87
2024/03/18 07:57:56;;;;;;;41.38;15.15;;;;;;;14.94;64.33;101573.41;4950994;28;96995;-88
2024/03/18 08:00:22;;;;;;;39.75;14.95;;;;;;;14.93;64.42;101579.50;4952843;28;96884;-87
2024/03/18 08:02:47;;;;;;;34.65;15.13;;;;;;;14.93;64.34;101584.75;4948170;28;100737;-86
2024/03/18 08:05:13;;;;;;;44.42;15.05;;;;;;;14.94;64.41;101586.53;4950780;28;97962;-87
2024/03/18 08:07:38;;;;;;;33.83;14.10;;;;;;;14.95;64.28;101583.00;4935748;28;97011;-87
2024/03/18 08:10:04;;;;;;;36.88;15.57;;;;;;;14.96;64.37;101582.16;4929223;28;96989;-88
2024/03/18 08:12:30;;;;;;;41.42;16.13;;;;;;;14.98;64.26;101583.03;4934323;28;100465;-88
2024/03/18 08:15:03;;;;;;;36.65;15.43;;;;;;;14.98;64.50;101587.44;4935627;28;100669;-87
2024/03/18 08:17:28;;;;;;;35.42;15.20;;;;;;;14.98;64.34;101593.56;4930612;28;96808;-84
2024/03/18 08:19:53;;;;;;;43.40;17.70;;;;;;;14.99;64.72;101594.41;4931440;28;97190;-83
2024/03/18 08:22:19;;;;;;;44.17;15.38;;;;;;;15.02;64.49;101590.06;4943934;28;100779;-83
2024/03/18 08:24:48;;;;;;;37.40;15.95;;;;;;;15.05;64.68;101594.47;4950711;28;100184;-84
2024/03/18 08:27:13;;;;;;;38.03;16.38;;;;;;;15.07;64.37;101590.09;4958213;28;96866;-84
2024/03/18 08:29:43;;;;;;;40.85;14.98;;;;;;;15.09;64.32;101590.13;4951637;28;97301;-84
2024/03/18 08:32:09;;;;;;;38.08;16.75;;;;;;;15.10;64.43;101591.84;4938155;28;100879;-84
2024/03/18 08:34:34;;;;;;;41.80;14.68;;;;;;;15.11;64.26;101589.25;4942563;28;97769;-84
2024/03/18 08:37:00;;;;;;;42.90;17.27;;;;;;;15.11;64.42;101585.75;4935031;28;97041;-85
2024/03/18 08:39:26;;;;;;;47.60;16.70;;;;;;;15.13;64.54;101595.38;4934059;28;96937;-84
2024/03/18 08:41:53;;;;;;;46.15;16.88;;;;;;;15.17;64.46;101593.69;4947898;28;100668;-84
2024/03/18 08:44:18;;;;;;;44.22;18.05;;;;;;;15.18;64.68;101596.28;4935676;28;100188;-85
2024/03/18 08:46:44;;;;;;;39.22;16.92;;;;;;;15.29;65.13;101592.84;4932278;28;96954;-85
2024/03/18 08:49:13;;;;;;;42.28;16.80;;;;;;;15.37;65.27;101592.00;4932790;28;97173;-85
2024/03/18 08:51:40;;;;;;;46.92;18.02;;;;;;;15.45;64.80;101599.06;4935838;28;100773;-85
2024/03/18 08:54:06;;;;;;;44.92;18.25;;;;;;;15.50;64.66;101602.59;4930880;28;100174;-84
2024/03/18 08:56:32;;;;;;;44.65;18.08;;;;;;;15.55;64.82;101601.72;4933632;28;96792;-85
2024/03/18 08:58:58;;;;;;;40.22;16.48;;;;;;;15.62;64.44;101613.16;4948625;28;96954;-85
2024/03/18 09:01:23;;;;;;;43.60;15.82;;;;;;;15.65;64.28;101609.66;4946162;28;100590;-85
2024/03/18 09:03:49;;;;;;;36.83;14.85;;;;;;;15.64;63.70;101610.53;4928156;28;99654;-84
2024/03/18 09:06:15;;;;;;;40.78;15.35;;;;;;;15.61;63.92;101604.41;4937191;28;96963;-85
2024/03/18 09:08:45;;;;;;;40.88;15.07;;;;;;;15.60;63.68;101607.88;4950086;28;96976;-85
2024/03/18 09:11:11;;;;;;;50.60;16.80;;;;;;;15.59;63.74;101610.50;4932511;28;100736;-85
2024/03/18 09:13:36;;;;;;;44.80;16.30;;;;;;;15.58;63.96;101614.91;4941617;28;99914;-84
2024/03/18 09:16:02;;;;;;;45.67;16.02;;;;;;;15.59;63.97;101611.38;4948640;28;96835;-85
2024/03/18 09:18:28;;;;;;;47.65;15.75;;;;;;;15.61;63.97;101611.38;4935459;28;96907;-85
2024/03/18 09:20:56;;;;;;;46.33;16.15;;;;;;;15.61;63.92;101607.03;4950388;28;97748;-85
2024/03/18 09:23:22;;;;;;;41.08;15.77;;;;;;;15.66;64.52;101617.56;4956069;28;96992;-85
2024/03/18 09:25:48;;;;;;;44.13;16.83;;;;;;;15.85;65.24;101608.00;4945531;28;96970;-85
2024/03/18 09:28:14;;;;;;;43.03;15.25;;;;;;;16.03;64.69;101609.81;4958126;28;96782;-86
2024/03/18 09:30:39;;;;;;;38.65;14.02;;;;;;;16.19;64.80;101610.72;4954605;28;101075;-85
2024/03/18 09:33:05;;;;;;;41.95;14.40;;;;;;;16.32;64.06;101608.97;4941382;28;99727;-86
2024/03/18 09:35:30;;;;;;;38.20;14.40;;;;;;;16.40;63.77;101608.97;4956283;28;96867;-86
2024/03/18 09:37:56;;;;;;;33.55;12.63;;;;;;;16.52;63.44;101623.03;4963850;28;96925;-86
2024/03/18 09:40:29;;;;;;;29.85;11.70;;;;;;;16.62;63.27;101623.03;4953881;28;100210;-86
2024/03/18 09:42:56;;;;;;;33.97;12.05;;;;;;;16.70;62.46;101627.44;4955322;28;97895;-86
2024/03/18 09:45:23;;;;;;;32.83;11.55;;;;;;;16.73;62.04;101624.78;4940210;28;98120;-86
2024/03/18 09:47:49;;;;;;;35.70;13.45;;;;;;;16.80;62.37;101622.16;4952814;28;97616;-85
2024/03/18 09:50:16;;;;;;;30.60;11.18;;;;;;;16.98;62.79;101618.66;4938190;28;100072;-86
2024/03/18 09:52:44;;;;;;;26.13;10.05;;;;;;;17.21;62.60;101615.97;4936330;28;100280;-86
2024/03/18 09:55:30;;;;;;;29.75;10.80;;;;;;;17.51;63.04;101613.22;4950527;28;96913;-86
2024/03/18 09:57:56;;;;;;;24.73;10.20;;;;;;;17.85;62.74;101606.91;4931929;28;97056;-85
2024/03/18 10:00:22;;;;;;;22.08;8.40;;;;;;;18.10;62.27;101609.44;4933600;28;100644;-86
2024/03/18 10:02:48;;;;;;;20.08;8.50;;;;;;;18.35;61.45;101605.72;4948680;28;97923;-86
2024/03/18 10:05:14;;;;;;;24.15;8.05;;;;;;;18.60;61.40;101616.09;4951898;28;97063;-87
2024/03/18 10:07:40;;;;;;;18.95;6.88;;;;;;;18.86;60.31;101617.66;4952172;28;96826;-87
2024/03/18 10:10:14;;;;;;;21.15;6.70;;;;;;;19.05;59.35;101616.59;4941145;28;100318;-87
2024/03/18 10:12:41;;;;;;;18.83;6.97;;;;;;;19.21;58.54;101622.59;4935853;28;100368;-87
2024/03/18 10:15:10;;;;;;;20.15;7.15;;;;;;;19.33;57.48;101614.53;4933967;28;96941;-86
2024/03/18 10:17:35;;;;;;;19.00;6.68;;;;;;;19.44;57.45;101619.69;4959197;28;96971;-87
2024/03/18 10:20:11;;;;;;;21.40;7.80;;;;;;;19.47;56.40;101626.72;4937182;28;100348;-86
2024/03/18 10:22:37;;;;;;;19.95;6.65;;;;;;;19.39;55.55;101621.50;4951370;28;100843;-86
2024/03/18 10:25:02;;;;;;;15.98;6.13;;;;;;;19.23;55.23;101617.28;4953974;28;97389;-85
2024/03/18 10:27:28;;;;;;;16.88;5.72;;;;;;;19.05;55.33;101624.53;4956222;28;96993;-86
2024/03/18 10:29:53;;;;;;;15.73;5.03;;;;;;;18.93;55.03;101625.53;4940999;28;100572;-87
2024/03/18 10:32:26;;;;;;;20.98;5.75;;;;;;;18.79;55.24;101624.75;4952518;28;100505;-86
2024/03/18 10:34:56;;;;;;;14.15;5.75;;;;;;;18.73;55.95;101624.78;4942209;28;96917;-86
2024/03/18 10:37:26;;;;;;;18.77;5.00;;;;;;;18.70;55.82;101620.44;4946005;28;96880;-86
2024/03/18 10:40:17;;;;;;;17.02;5.78;;;;;;;18.70;56.42;101623.06;4961169;28;100907;-85
2024/03/18 10:42:44;;;;;;;13.50;4.50;;;;;;;18.82;56.29;101622.09;4956764;28;100638;-85
2024/03/18 10:45:17;;;;;;;13.02;4.55;;;;;;;18.91;55.82;101629.06;4950660;28;96967;-85
2024/03/18 10:47:45;;;;;;;13.68;4.63;;;;;;;18.95;55.52;101633.47;4933361;28;96900;-85
2024/03/18 10:50:16;;;;;;;14.73;5.03;;;;;;;18.93;55.58;101625.53;4947718;28;100771;-85
2024/03/18 10:52:43;;;;;;;13.75;3.42;;;;;;;18.93;54.99;101627.28;4947276;28;100623;-85
2024/03/18 10:55:20;;;;;;;8.75;3.45;;;;;;;18.92;54.97;101626.41;4938214;28;96881;-85
2024/03/18 10:57:54;;;;;;;20.85;3.35;;;;;;;18.96;54.88;101635.19;4952476;28;96995;-84
2024/03/18 11:00:21;;;;;;;13.18;2.60;;;;;;;19.01;54.38;101638.66;4949491;28;98145;-84
2024/03/18 11:02:57;;;;;;;12.10;2.90;;;;;;;19.03;54.26;101632.47;4935189;28;99531;-85
2024/03/18 11:05:25;;;;;;;9.95;2.42;;;;;;;19.09;54.56;101642.13;4944585;28;97211;-85
2024/03/18 11:08:06;;;;;;;8.60;2.13;;;;;;;19.20;54.36;101642.88;4954025;28;96824;-84